sensor_id;sensor_type;location;lat;lon;timestamp;temperature;humidity
11426;DHT22;5769;47.998;7.788;2023-02-10T00:01:14;19.00;57.10
11426;DHT22;5769;47.998;7.788;2023-02-10T00:03:41;19.00;57.10
11426;DHT22;5769;47.998;7.788;2023-02-10T00:06:10;18.90;57.10
11426;DHT22;5769;47.998;7.788;2023-02-10T00:08:38;18.90;57.10
11426;DHT22;5769;47.998;7.788;2023-02-10T00:11:08;19.00;57.10
11426;DHT22;5769;47.998;7.788;2023-02-10T00:13:37;19.00;57.10
11426;DHT22;5769;47.998;7.788;2023-02-10T00:16:06;19.00;57.10
11426;DHT22;5769;47.998;7.788;2023-02-10T00:18:34;18.90;57.00
11426;DHT22;5769;47.998;7.788;2023-02-10T00:21:05;19.00;57.10
11426;DHT22;5769;47.998;7.788;2023-02-10T00:23:32;19.00;57.10
11426;DHT22;5769;47.998;7.788;2023-02-10T00:26:02;19.00;57.00
11426;DHT22;5769;47.998;7.788;2023-02-10T00:28:29;19.00;57.10
11426;DHT22;5769;47.998;7.788;2023-02-10T00:30:57;19.00;57.70
11426;DHT22;5769;47.998;7.788;2023-02-10T00:33:23;18.90;57.00
11426;DHT22;5769;47.998;7.788;2023-02-10T00:35:50;18.90;57.00
11426;DHT22;5769;47.998;7.788;2023-02-10T00:38:17;18.90;57.00
11426;DHT22;5769;47.998;7.788;2023-02-10T00:40:44;18.90;57.00
11426;DHT22;5769;47.998;7.788;2023-02-10T00:43:10;18.90;57.00
11426;DHT22;5769;47.998;7.788;2023-02-10T00:45:37;18.90;57.00
11426;DHT22;5769;47.998;7.788;2023-02-10T00:48:08;18.90;57.00
11426;DHT22;5769;47.998;7.788;2023-02-10T00:50:35;18.90;57.00
11426;DHT22;5769;47.998;7.788;2023-02-10T00:53:02;18.90;57.00
11426;DHT22;5769;47.998;7.788;2023-02-10T00:55:29;18.90;57.00
11426;DHT22;5769;47.998;7.788;2023-02-10T00:57:56;18.90;57.00
11426;DHT22;5769;47.998;7.788;2023-02-10T01:00:23;18.90;57.00
11426;DHT22;5769;47.998;7.788;2023-02-10T01:02:49;18.90;57.00
11426;DHT22;5769;47.998;7.788;2023-02-10T01:05:19;18.90;57.00
11426;DHT22;5769;47.998;7.788;2023-02-10T01:07:45;18.90;57.00
11426;DHT22;5769;47.998;7.788;2023-02-10T01:10:12;18.90;57.00
11426;DHT22;5769;47.998;7.788;2023-02-10T01:12:40;18.90;57.00
11426;DHT22;5769;47.998;7.788;2023-02-10T01:15:07;18.90;57.00
11426;DHT22;5769;47.998;7.788;2023-02-10T01:17:35;18.90;57.00
11426;DHT22;5769;47.998;7.788;2023-02-10T01:20:02;18.90;57.00
11426;DHT22;5769;47.998;7.788;2023-02-10T01:22:31;18.90;57.00
11426;DHT22;5769;47.998;7.788;2023-02-10T01:24:58;18.90;57.00
11426;DHT22;5769;47.998;7.788;2023-02-10T01:27:25;18.90;57.00
11426;DHT22;5769;47.998;7.788;2023-02-10T01:29:52;18.90;57.00
11426;DHT22;5769;47.998;7.788;2023-02-10T01:32:18;18.90;57.00
11426;DHT22;5769;47.998;7.788;2023-02-10T01:34:45;18.90;57.00
11426;DHT22;5769;47.998;7.788;2023-02-10T01:37:12;18.90;57.00
11426;DHT22;5769;47.998;7.788;2023-02-10T01:39:40;18.90;57.00
11426;DHT22;5769;47.998;7.788;2023-02-10T01:42:09;18.90;57.00
11426;DHT22;5769;47.998;7.788;2023-02-10T01:45:16;18.90;57.00
11426;DHT22;5769;47.998;7.788;2023-02-10T01:47:44;18.90;57.00
11426;DHT22;5769;47.998;7.788;2023-02-10T01:50:11;18.90;57.00
11426;DHT22;5769;47.998;7.788;2023-02-10T01:52:39;18.90;57.00
11426;DHT22;5769;47.998;7.788;2023-02-10T01:55:12;18.90;57.00
11426;DHT22;5769;47.998;7.788;2023-02-10T01:57:42;18.90;57.00
11426;DHT22;5769;47.998;7.788;2023-02-10T02:00:11;18.90;57.00
11426;DHT22;5769;47.998;7.788;2023-02-10T02:02:39;18.90;57.00
11426;DHT22;5769;47.998;7.788;2023-02-10T02:05:17;18.90;57.00
11426;DHT22;5769;47.998;7.788;2023-02-10T02:07:44;18.90;57.00
11426;DHT22;5769;47.998;7.788;2023-02-10T02:10:15;18.90;57.00
11426;DHT22;5769;47.998;7.788;2023-02-10T02:12:49;18.90;57.00
11426;DHT22;5769;47.998;7.788;2023-02-10T02:15:23;18.90;57.00
11426;DHT22;5769;47.998;7.788;2023-02-10T02:18:00;18.90;57.00
11426;DHT22;5769;47.998;7.788;2023-02-10T02:20:58;18.90;57.00
11426;DHT22;5769;47.998;7.788;2023-02-10T02:23:57;18.90;57.00
11426;DHT22;5769;47.998;7.788;2023-02-10T02:26:49;18.90;57.00
11426;DHT22;5769;47.998;7.788;2023-02-10T02:29:40;18.90;57.00
11426;DHT22;5769;47.998;7.788;2023-02-10T02:32:14;18.90;56.90
11426;DHT22;5769;47.998;7.788;2023-02-10T02:34:48;18.90;57.00
11426;DHT22;5769;47.998;7.788;2023-02-10T02:37:19;18.90;57.00
11426;DHT22;5769;47.998;7.788;2023-02-10T02:39:49;18.90;56.90
11426;DHT22;5769;47.998;7.788;2023-02-10T02:42:19;18.90;57.00
11426;DHT22;5769;47.998;7.788;2023-02-10T02:44:48;18.90;56.90
11426;DHT22;5769;47.998;7.788;2023-02-10T02:47:26;18.90;56.90
11426;DHT22;5769;47.998;7.788;2023-02-10T02:50:03;18.90;56.90
11426;DHT22;5769;47.998;7.788;2023-02-10T02:52:40;18.90;56.90
11426;DHT22;5769;47.998;7.788;2023-02-10T02:55:13;18.90;56.90
11426;DHT22;5769;47.998;7.788;2023-02-10T02:57:46;18.90;56.90
11426;DHT22;5769;47.998;7.788;2023-02-10T03:00:17;18.90;56.90
11426;DHT22;5769;47.998;7.788;2023-02-10T03:02:51;18.90;56.90
11426;DHT22;5769;47.998;7.788;2023-02-10T03:05:19;18.90;57.00
11426;DHT22;5769;47.998;7.788;2023-02-10T03:07:47;18.90;56.90
11426;DHT22;5769;47.998;7.788;2023-02-10T03:10:15;18.90;57.00
11426;DHT22;5769;47.998;7.788;2023-02-10T03:12:42;18.90;57.00
11426;DHT22;5769;47.998;7.788;2023-02-10T03:15:09;18.90;56.90
11426;DHT22;5769;47.998;7.788;2023-02-10T03:17:36;18.90;57.00
11426;DHT22;5769;47.998;7.788;2023-02-10T03:20:06;18.90;57.00
11426;DHT22;5769;47.998;7.788;2023-02-10T03:22:33;18.90;56.90
11426;DHT22;5769;47.998;7.788;2023-02-10T03:25:02;18.90;56.90
11426;DHT22;5769;47.998;7.788;2023-02-10T03:27:29;18.90;57.00
11426;DHT22;5769;47.998;7.788;2023-02-10T03:29:56;18.90;57.00
11426;DHT22;5769;47.998;7.788;2023-02-10T03:32:22;18.90;57.00
11426;DHT22;5769;47.998;7.788;2023-02-10T03:34:49;18.90;56.90
11426;DHT22;5769;47.998;7.788;2023-02-10T03:37:17;18.90;56.90
11426;DHT22;5769;47.998;7.788;2023-02-10T03:39:44;18.90;57.00
11426;DHT22;5769;47.998;7.788;2023-02-10T03:42:12;18.90;57.00
11426;DHT22;5769;47.998;7.788;2023-02-10T03:44:39;18.90;57.00
11426;DHT22;5769;47.998;7.788;2023-02-10T03:47:05;18.90;57.00
11426;DHT22;5769;47.998;7.788;2023-02-10T03:49:32;18.80;56.90
11426;DHT22;5769;47.998;7.788;2023-02-10T03:51:59;18.90;57.00
11426;DHT22;5769;47.998;7.788;2023-02-10T03:54:27;18.80;56.90
11426;DHT22;5769;47.998;7.788;2023-02-10T03:56:53;18.90;57.00
11426;DHT22;5769;47.998;7.788;2023-02-10T03:59:20;18.90;57.00
11426;DHT22;5769;47.998;7.788;2023-02-10T04:01:47;18.90;57.60
11426;DHT22;5769;47.998;7.788;2023-02-10T04:04:14;18.90;57.00
11426;DHT22;5769;47.998;7.788;2023-02-10T04:06:40;18.90;57.00
11426;DHT22;5769;47.998;7.788;2023-02-10T04:09:07;18.90;57.00
11426;DHT22;5769;47.998;7.788;2023-02-10T04:11:35;18.90;57.00
11426;DHT22;5769;47.998;7.788;2023-02-10T04:14:01;18.90;57.60
11426;DHT22;5769;47.998;7.788;2023-02-10T04:16:30;18.90;57.00
11426;DHT22;5769;47.998;7.788;2023-02-10T04:18:59;18.80;57.00
11426;DHT22;5769;47.998;7.788;2023-02-10T04:21:25;18.80;57.00
11426;DHT22;5769;47.998;7.788;2023-02-10T04:23:52;18.80;57.00
11426;DHT22;5769;47.998;7.788;2023-02-10T04:26:19;18.80;57.00
11426;DHT22;5769;47.998;7.788;2023-02-10T04:28:47;18.90;57.00
11426;DHT22;5769;47.998;7.788;2023-02-10T04:31:14;18.90;57.00
11426;DHT22;5769;47.998;7.788;2023-02-10T04:33:47;18.80;57.00
11426;DHT22;5769;47.998;7.788;2023-02-10T04:36:14;18.90;57.00
11426;DHT22;5769;47.998;7.788;2023-02-10T04:38:40;18.80;57.00
11426;DHT22;5769;47.998;7.788;2023-02-10T04:41:07;18.80;57.00
11426;DHT22;5769;47.998;7.788;2023-02-10T04:43:34;18.90;57.00
11426;DHT22;5769;47.998;7.788;2023-02-10T04:46:02;18.80;56.90
11426;DHT22;5769;47.998;7.788;2023-02-10T04:48:29;18.90;57.00
11426;DHT22;5769;47.998;7.788;2023-02-10T04:50:56;18.90;57.00
11426;DHT22;5769;47.998;7.788;2023-02-10T04:53:23;18.90;57.00
11426;DHT22;5769;47.998;7.788;2023-02-10T04:55:49;18.80;56.90
11426;DHT22;5769;47.998;7.788;2023-02-10T04:58:16;18.80;57.00
11426;DHT22;5769;47.998;7.788;2023-02-10T05:00:43;18.80;57.00
11426;DHT22;5769;47.998;7.788;2023-02-10T05:03:11;18.80;57.00
11426;DHT22;5769;47.998;7.788;2023-02-10T05:05:38;18.80;56.90
11426;DHT22;5769;47.998;7.788;2023-02-10T05:08:05;18.90;57.00
11426;DHT22;5769;47.998;7.788;2023-02-10T05:10:32;18.80;56.90
11426;DHT22;5769;47.998;7.788;2023-02-10T05:12:58;18.80;56.90
11426;DHT22;5769;47.998;7.788;2023-02-10T05:15:25;18.80;56.90
11426;DHT22;5769;47.998;7.788;2023-02-10T05:17:52;18.80;57.00
11426;DHT22;5769;47.998;7.788;2023-02-10T05:20:20;18.80;57.00
11426;DHT22;5769;47.998;7.788;2023-02-10T05:22:47;18.80;57.00
11426;DHT22;5769;47.998;7.788;2023-02-10T05:25:13;18.80;57.00
11426;DHT22;5769;47.998;7.788;2023-02-10T05:27:40;18.80;56.90
11426;DHT22;5769;47.998;7.788;2023-02-10T05:30:09;18.80;56.90
11426;DHT22;5769;47.998;7.788;2023-02-10T05:32:38;18.80;57.00
11426;DHT22;5769;47.998;7.788;2023-02-10T05:35:05;18.80;57.00
11426;DHT22;5769;47.998;7.788;2023-02-10T05:37:33;18.80;56.90
11426;DHT22;5769;47.998;7.788;2023-02-10T05:40:00;18.80;56.90
11426;DHT22;5769;47.998;7.788;2023-02-10T05:42:27;18.80;57.00
11426;DHT22;5769;47.998;7.788;2023-02-10T05:44:53;18.80;57.00
11426;DHT22;5769;47.998;7.788;2023-02-10T05:47:20;18.80;56.90
11426;DHT22;5769;47.998;7.788;2023-02-10T05:49:47;18.80;56.90
11426;DHT22;5769;47.998;7.788;2023-02-10T05:52:13;18.80;57.00
11426;DHT22;5769;47.998;7.788;2023-02-10T05:54:41;18.80;57.00
11426;DHT22;5769;47.998;7.788;2023-02-10T05:57:08;18.80;57.00
11426;DHT22;5769;47.998;7.788;2023-02-10T05:59:35;18.80;57.00
11426;DHT22;5769;47.998;7.788;2023-02-10T06:02:01;18.80;57.00
11426;DHT22;5769;47.998;7.788;2023-02-10T06:04:28;18.80;57.00
11426;DHT22;5769;47.998;7.788;2023-02-10T06:06:55;18.80;57.00
11426;DHT22;5769;47.998;7.788;2023-02-10T06:09:22;18.80;57.00
11426;DHT22;5769;47.998;7.788;2023-02-10T06:11:50;18.80;56.90
11426;DHT22;5769;47.998;7.788;2023-02-10T06:14:17;18.80;56.90
11426;DHT22;5769;47.998;7.788;2023-02-10T06:16:44;18.80;57.00
11426;DHT22;5769;47.998;7.788;2023-02-10T06:19:11;18.80;56.90
11426;DHT22;5769;47.998;7.788;2023-02-10T06:21:37;18.80;56.90
11426;DHT22;5769;47.998;7.788;2023-02-10T06:24:04;18.80;56.90
11426;DHT22;5769;47.998;7.788;2023-02-10T06:26:31;18.80;56.90
11426;DHT22;5769;47.998;7.788;2023-02-10T06:28:59;18.80;56.90
11426;DHT22;5769;47.998;7.788;2023-02-10T06:31:26;18.80;57.00
11426;DHT22;5769;47.998;7.788;2023-02-10T06:33:53;18.80;57.00
11426;DHT22;5769;47.998;7.788;2023-02-10T06:36:19;18.80;56.90
11426;DHT22;5769;47.998;7.788;2023-02-10T06:38:46;18.80;56.90
11426;DHT22;5769;47.998;7.788;2023-02-10T06:41:14;18.80;56.90
11426;DHT22;5769;47.998;7.788;2023-02-10T06:43:41;18.80;56.90
11426;DHT22;5769;47.998;7.788;2023-02-10T06:46:09;18.80;56.90
11426;DHT22;5769;47.998;7.788;2023-02-10T06:48:38;18.80;56.90
11426;DHT22;5769;47.998;7.788;2023-02-10T06:51:05;18.80;56.90
11426;DHT22;5769;47.998;7.788;2023-02-10T06:53:31;18.80;56.90
11426;DHT22;5769;47.998;7.788;2023-02-10T06:55:58;18.80;56.90
11426;DHT22;5769;47.998;7.788;2023-02-10T06:58:25;18.80;56.90
11426;DHT22;5769;47.998;7.788;2023-02-10T07:00:52;18.80;56.90
11426;DHT22;5769;47.998;7.788;2023-02-10T07:03:20;18.80;56.90
11426;DHT22;5769;47.998;7.788;2023-02-10T07:05:47;18.80;56.90
11426;DHT22;5769;47.998;7.788;2023-02-10T07:08:13;18.80;56.90
11426;DHT22;5769;47.998;7.788;2023-02-10T07:10:40;18.80;56.90
11426;DHT22;5769;47.998;7.788;2023-02-10T07:13:06;18.80;56.90
11426;DHT22;5769;47.998;7.788;2023-02-10T07:15:33;18.80;56.90
11426;DHT22;5769;47.998;7.788;2023-02-10T07:18:00;18.80;56.90
11426;DHT22;5769;47.998;7.788;2023-02-10T07:20:28;18.80;56.90
11426;DHT22;5769;47.998;7.788;2023-02-10T07:22:55;18.80;56.90
11426;DHT22;5769;47.998;7.788;2023-02-10T07:25:22;18.80;56.90
11426;DHT22;5769;47.998;7.788;2023-02-10T07:27:48;18.80;56.90
11426;DHT22;5769;47.998;7.788;2023-02-10T07:30:15;18.80;56.90
11426;DHT22;5769;47.998;7.788;2023-02-10T07:32:42;18.80;56.90
11426;DHT22;5769;47.998;7.788;2023-02-10T07:35:09;18.80;56.90
11426;DHT22;5769;47.998;7.788;2023-02-10T07:37:38;18.80;56.80
11426;DHT22;5769;47.998;7.788;2023-02-10T07:40:06;18.80;56.90
11426;DHT22;5769;47.998;7.788;2023-02-10T07:42:32;18.80;56.80
11426;DHT22;5769;47.998;7.788;2023-02-10T07:44:59;18.80;56.80
11426;DHT22;5769;47.998;7.788;2023-02-10T07:47:26;18.80;56.90
11426;DHT22;5769;47.998;7.788;2023-02-10T07:49:56;18.80;56.80
11426;DHT22;5769;47.998;7.788;2023-02-10T07:52:23;18.80;56.80
11426;DHT22;5769;47.998;7.788;2023-02-10T07:54:51;18.70;56.70
11426;DHT22;5769;47.998;7.788;2023-02-10T07:57:18;18.80;56.80
11426;DHT22;5769;47.998;7.788;2023-02-10T07:59:45;18.80;56.80
11426;DHT22;5769;47.998;7.788;2023-02-10T08:02:12;18.70;56.80
11426;DHT22;5769;47.998;7.788;2023-02-10T08:04:39;18.80;56.80
11426;DHT22;5769;47.998;7.788;2023-02-10T08:07:06;18.80;56.80
11426;DHT22;5769;47.998;7.788;2023-02-10T08:09:32;18.70;56.80
11426;DHT22;5769;47.998;7.788;2023-02-10T08:12:00;18.80;56.80
11426;DHT22;5769;47.998;7.788;2023-02-10T08:14:27;18.70;56.80
11426;DHT22;5769;47.998;7.788;2023-02-10T08:16:54;18.70;56.80
11426;DHT22;5769;47.998;7.788;2023-02-10T08:19:21;18.70;56.70
11426;DHT22;5769;47.998;7.788;2023-02-10T08:21:47;18.80;56.80
11426;DHT22;5769;47.998;7.788;2023-02-10T08:24:14;18.80;56.80
11426;DHT22;5769;47.998;7.788;2023-02-10T08:26:41;18.80;56.80
11426;DHT22;5769;47.998;7.788;2023-02-10T08:29:09;18.80;56.70
11426;DHT22;5769;47.998;7.788;2023-02-10T08:31:37;18.80;56.80
11426;DHT22;5769;47.998;7.788;2023-02-10T08:34:04;18.90;56.80
11426;DHT22;5769;47.998;7.788;2023-02-10T08:36:31;18.90;57.00
11426;DHT22;5769;47.998;7.788;2023-02-10T08:38:58;18.90;57.10
11426;DHT22;5769;47.998;7.788;2023-02-10T08:41:24;18.90;56.80
11426;DHT22;5769;47.998;7.788;2023-02-10T08:43:56;18.90;57.30
11426;DHT22;5769;47.998;7.788;2023-02-10T08:46:24;19.00;57.40
11426;DHT22;5769;47.998;7.788;2023-02-10T08:48:51;19.00;57.40
11426;DHT22;5769;47.998;7.788;2023-02-10T08:51:18;19.00;57.40
11426;DHT22;5769;47.998;7.788;2023-02-10T08:53:44;19.00;57.40
11426;DHT22;5769;47.998;7.788;2023-02-10T08:56:14;19.00;57.50
11426;DHT22;5769;47.998;7.788;2023-02-10T08:58:41;19.00;57.60
11426;DHT22;5769;47.998;7.788;2023-02-10T09:01:09;19.00;57.70
11426;DHT22;5769;47.998;7.788;2023-02-10T09:03:37;19.00;57.60
11426;DHT22;5769;47.998;7.788;2023-02-10T09:06:04;19.10;57.70
11426;DHT22;5769;47.998;7.788;2023-02-10T09:08:31;19.10;57.70
11426;DHT22;5769;47.998;7.788;2023-02-10T09:10:58;19.10;57.80
11426;DHT22;5769;47.998;7.788;2023-02-10T09:13:25;19.10;57.90
11426;DHT22;5769;47.998;7.788;2023-02-10T09:15:51;19.10;58.00
11426;DHT22;5769;47.998;7.788;2023-02-10T09:18:18;19.10;58.10
11426;DHT22;5769;47.998;7.788;2023-02-10T09:20:46;19.20;58.10
11426;DHT22;5769;47.998;7.788;2023-02-10T09:23:13;19.20;58.10
11426;DHT22;5769;47.998;7.788;2023-02-10T09:25:40;19.20;58.30
11426;DHT22;5769;47.998;7.788;2023-02-10T09:28:24;19.20;58.40
11426;DHT22;5769;47.998;7.788;2023-02-10T09:31:07;19.20;58.50
11426;DHT22;5769;47.998;7.788;2023-02-10T09:33:36;19.20;58.60
11426;DHT22;5769;47.998;7.788;2023-02-10T09:36:15;19.30;58.50
11426;DHT22;5769;47.998;7.788;2023-02-10T09:38:44;19.20;58.50
11426;DHT22;5769;47.998;7.788;2023-02-10T09:41:30;19.30;58.70
11426;DHT22;5769;47.998;7.788;2023-02-10T09:44:08;19.30;58.80
11426;DHT22;5769;47.998;7.788;2023-02-10T09:46:47;19.30;58.90
11426;DHT22;5769;47.998;7.788;2023-02-10T09:49:27;19.30;59.00
11426;DHT22;5769;47.998;7.788;2023-02-10T09:52:07;19.30;59.10
11426;DHT22;5769;47.998;7.788;2023-02-10T09:54:54;19.30;59.30
11426;DHT22;5769;47.998;7.788;2023-02-10T09:57:42;19.30;59.20
11426;DHT22;5769;47.998;7.788;2023-02-10T10:00:21;19.40;59.40
11426;DHT22;5769;47.998;7.788;2023-02-10T10:02:52;19.40;59.40
11426;DHT22;5769;47.998;7.788;2023-02-10T10:05:36;19.40;59.10
11426;DHT22;5769;47.998;7.788;2023-02-10T10:08:16;19.30;58.80
11426;DHT22;5769;47.998;7.788;2023-02-10T10:10:45;19.30;58.20
11426;DHT22;5769;47.998;7.788;2023-02-10T10:13:14;19.30;57.30
11426;DHT22;5769;47.998;7.788;2023-02-10T10:15:48;19.30;56.70
11426;DHT22;5769;47.998;7.788;2023-02-10T10:18:24;19.30;56.70
11426;DHT22;5769;47.998;7.788;2023-02-10T10:20:59;19.30;56.80
11426;DHT22;5769;47.998;7.788;2023-02-10T10:23:38;19.30;56.60
11426;DHT22;5769;47.998;7.788;2023-02-10T10:26:34;19.30;56.60
11426;DHT22;5769;47.998;7.788;2023-02-10T10:29:19;19.30;55.80
11426;DHT22;5769;47.998;7.788;2023-02-10T10:31:50;19.30;56.40
11426;DHT22;5769;47.998;7.788;2023-02-10T10:34:24;19.30;56.40
11426;DHT22;5769;47.998;7.788;2023-02-10T10:36:56;19.30;56.40
11426;DHT22;5769;47.998;7.788;2023-02-10T10:39:29;19.30;56.90
11426;DHT22;5769;47.998;7.788;2023-02-10T10:42:01;19.30;57.10
11426;DHT22;5769;47.998;7.788;2023-02-10T10:44:30;19.30;57.30
11426;DHT22;5769;47.998;7.788;2023-02-10T10:47:04;19.30;57.40
11426;DHT22;5769;47.998;7.788;2023-02-10T10:49:34;19.30;57.50
11426;DHT22;5769;47.998;7.788;2023-02-10T10:52:01;19.30;57.60
11426;DHT22;5769;47.998;7.788;2023-02-10T10:54:30;19.30;57.70
11426;DHT22;5769;47.998;7.788;2023-02-10T10:57:00;19.30;57.70
11426;DHT22;5769;47.998;7.788;2023-02-10T10:59:32;19.30;57.70
11426;DHT22;5769;47.998;7.788;2023-02-10T11:02:11;19.40;57.80
11426;DHT22;5769;47.998;7.788;2023-02-10T11:04:38;19.40;57.80
11426;DHT22;5769;47.998;7.788;2023-02-10T11:07:10;19.40;57.90
11426;DHT22;5769;47.998;7.788;2023-02-10T11:09:41;19.40;57.90
11426;DHT22;5769;47.998;7.788;2023-02-10T11:12:15;19.40;58.00
11426;DHT22;5769;47.998;7.788;2023-02-10T11:14:45;19.40;58.00
11426;DHT22;5769;47.998;7.788;2023-02-10T11:17:24;19.40;58.00
11426;DHT22;5769;47.998;7.788;2023-02-10T11:19:57;19.40;58.00
11426;DHT22;5769;47.998;7.788;2023-02-10T11:22:27;19.40;58.00
11426;DHT22;5769;47.998;7.788;2023-02-10T11:24:57;19.40;58.10
11426;DHT22;5769;47.998;7.788;2023-02-10T11:27:24;19.40;57.90
11426;DHT22;5769;47.998;7.788;2023-02-10T11:29:52;19.40;57.50
11426;DHT22;5769;47.998;7.788;2023-02-10T11:32:21;19.40;57.30
11426;DHT22;5769;47.998;7.788;2023-02-10T11:34:51;19.40;57.40
11426;DHT22;5769;47.998;7.788;2023-02-10T11:37:23;19.40;57.70
11426;DHT22;5769;47.998;7.788;2023-02-10T11:39:54;19.40;57.70
11426;DHT22;5769;47.998;7.788;2023-02-10T11:42:23;19.40;57.70
11426;DHT22;5769;47.998;7.788;2023-02-10T11:44:55;19.40;57.70
11426;DHT22;5769;47.998;7.788;2023-02-10T11:47:23;19.40;57.70
11426;DHT22;5769;47.998;7.788;2023-02-10T11:49:50;19.40;57.80
11426;DHT22;5769;47.998;7.788;2023-02-10T11:52:18;19.40;57.80
11426;DHT22;5769;47.998;7.788;2023-02-10T11:54:47;19.40;58.20
11426;DHT22;5769;47.998;7.788;2023-02-10T11:57:33;19.40;57.70
11426;DHT22;5769;47.998;7.788;2023-02-10T12:00:25;19.40;57.70
11426;DHT22;5769;47.998;7.788;2023-02-10T12:05:54;19.40;57.70
11426;DHT22;5769;47.998;7.788;2023-02-10T12:08:28;19.40;57.80
11426;DHT22;5769;47.998;7.788;2023-02-10T12:11:00;19.30;57.70
11426;DHT22;5769;47.998;7.788;2023-02-10T12:13:38;19.30;57.70
11426;DHT22;5769;47.998;7.788;2023-02-10T12:16:15;19.30;57.70
11426;DHT22;5769;47.998;7.788;2023-02-10T12:18:57;19.30;57.70
11426;DHT22;5769;47.998;7.788;2023-02-10T12:21:42;19.30;58.30
11426;DHT22;5769;47.998;7.788;2023-02-10T12:24:26;19.30;57.70
11426;DHT22;5769;47.998;7.788;2023-02-10T12:27:01;19.30;57.70
11426;DHT22;5769;47.998;7.788;2023-02-10T12:29:40;19.20;57.60
11426;DHT22;5769;47.998;7.788;2023-02-10T12:32:17;19.30;57.70
11426;DHT22;5769;47.998;7.788;2023-02-10T12:35:13;19.20;57.60
11426;DHT22;5769;47.998;7.788;2023-02-10T12:37:51;19.20;57.60
11426;DHT22;5769;47.998;7.788;2023-02-10T12:40:36;19.20;57.60
11426;DHT22;5769;47.998;7.788;2023-02-10T12:43:11;19.20;57.60
11426;DHT22;5769;47.998;7.788;2023-02-10T12:45:44;19.20;57.30
11426;DHT22;5769;47.998;7.788;2023-02-10T12:48:21;19.20;57.30
11426;DHT22;5769;47.998;7.788;2023-02-10T12:51:04;19.30;57.40
11426;DHT22;5769;47.998;7.788;2023-02-10T12:53:36;19.30;57.50
11426;DHT22;5769;47.998;7.788;2023-02-10T12:56:09;19.30;57.50
11426;DHT22;5769;47.998;7.788;2023-02-10T12:58:40;19.30;57.60
11426;DHT22;5769;47.998;7.788;2023-02-10T13:01:13;19.30;57.60
11426;DHT22;5769;47.998;7.788;2023-02-10T13:03:43;19.30;57.60
11426;DHT22;5769;47.998;7.788;2023-02-10T13:06:19;19.30;57.70
11426;DHT22;5769;47.998;7.788;2023-02-10T13:08:49;19.30;57.70
11426;DHT22;5769;47.998;7.788;2023-02-10T13:11:25;19.30;57.80
11426;DHT22;5769;47.998;7.788;2023-02-10T13:13:54;19.30;57.80
11426;DHT22;5769;47.998;7.788;2023-02-10T13:16:25;19.30;57.60
11426;DHT22;5769;47.998;7.788;2023-02-10T13:18:58;19.30;57.70
11426;DHT22;5769;47.998;7.788;2023-02-10T13:21:30;19.30;57.70
11426;DHT22;5769;47.998;7.788;2023-02-10T13:24:05;19.30;57.70
11426;DHT22;5769;47.998;7.788;2023-02-10T13:26:46;19.30;57.80
11426;DHT22;5769;47.998;7.788;2023-02-10T13:29:23;19.20;57.80
11426;DHT22;5769;47.998;7.788;2023-02-10T13:32:09;19.30;58.40
11426;DHT22;5769;47.998;7.788;2023-02-10T13:34:42;19.20;57.70
11426;DHT22;5769;47.998;7.788;2023-02-10T13:37:14;19.20;57.80
11426;DHT22;5769;47.998;7.788;2023-02-10T13:42:21;19.20;57.70
11426;DHT22;5769;47.998;7.788;2023-02-10T13:44:57;19.20;57.70
11426;DHT22;5769;47.998;7.788;2023-02-10T13:47:28;19.20;57.70
11426;DHT22;5769;47.998;7.788;2023-02-10T13:49:59;19.20;57.70
11426;DHT22;5769;47.998;7.788;2023-02-10T13:52:30;19.20;57.70
11426;DHT22;5769;47.998;7.788;2023-02-10T13:54:59;19.20;57.70
11426;DHT22;5769;47.998;7.788;2023-02-10T13:57:29;19.10;57.60
11426;DHT22;5769;47.998;7.788;2023-02-10T14:00:21;19.10;57.70
11426;DHT22;5769;47.998;7.788;2023-02-10T14:03:00;19.20;57.80
11426;DHT22;5769;47.998;7.788;2023-02-10T14:05:30;19.10;57.70
11426;DHT22;5769;47.998;7.788;2023-02-10T14:07:57;19.10;57.70
11426;DHT22;5769;47.998;7.788;2023-02-10T14:10:32;19.20;57.80
11426;DHT22;5769;47.998;7.788;2023-02-10T14:13:03;19.10;57.80
11426;DHT22;5769;47.998;7.788;2023-02-10T14:15:31;19.20;57.70
11426;DHT22;5769;47.998;7.788;2023-02-10T14:18:03;19.10;57.70
11426;DHT22;5769;47.998;7.788;2023-02-10T14:20:33;19.10;57.70
11426;DHT22;5769;47.998;7.788;2023-02-10T14:23:02;19.10;57.60
11426;DHT22;5769;47.998;7.788;2023-02-10T14:25:33;19.20;57.30
11426;DHT22;5769;47.998;7.788;2023-02-10T14:28:01;19.10;57.40
11426;DHT22;5769;47.998;7.788;2023-02-10T14:30:37;19.10;57.50
11426;DHT22;5769;47.998;7.788;2023-02-10T14:33:14;19.10;57.60
11426;DHT22;5769;47.998;7.788;2023-02-10T14:35:49;19.10;57.60
11426;DHT22;5769;47.998;7.788;2023-02-10T14:38:20;19.10;57.60
11426;DHT22;5769;47.998;7.788;2023-02-10T14:40:47;19.10;57.60
11426;DHT22;5769;47.998;7.788;2023-02-10T14:43:20;19.10;57.70
11426;DHT22;5769;47.998;7.788;2023-02-10T14:45:47;19.10;57.70
11426;DHT22;5769;47.998;7.788;2023-02-10T14:48:16;19.10;57.70
11426;DHT22;5769;47.998;7.788;2023-02-10T14:50:56;19.10;57.70
11426;DHT22;5769;47.998;7.788;2023-02-10T14:53:23;19.00;57.60
11426;DHT22;5769;47.998;7.788;2023-02-10T14:55:53;19.10;57.70
11426;DHT22;5769;47.998;7.788;2023-02-10T14:58:21;19.10;57.80
11426;DHT22;5769;47.998;7.788;2023-02-10T15:00:56;19.10;57.70
11426;DHT22;5769;47.998;7.788;2023-02-10T15:03:26;19.10;57.60
11426;DHT22;5769;47.998;7.788;2023-02-10T15:05:54;19.10;57.70
11426;DHT22;5769;47.998;7.788;2023-02-10T15:08:37;19.00;57.70
11426;DHT22;5769;47.998;7.788;2023-02-10T15:11:07;19.00;57.70
11426;DHT22;5769;47.998;7.788;2023-02-10T15:13:37;19.00;57.60
11426;DHT22;5769;47.998;7.788;2023-02-10T15:16:09;19.00;57.60
11426;DHT22;5769;47.998;7.788;2023-02-10T15:18:41;19.00;57.60
11426;DHT22;5769;47.998;7.788;2023-02-10T15:21:27;19.00;57.60
11426;DHT22;5769;47.998;7.788;2023-02-10T15:23:54;19.00;57.60
11426;DHT22;5769;47.998;7.788;2023-02-10T15:26:24;19.00;57.60
11426;DHT22;5769;47.998;7.788;2023-02-10T15:29:00;19.00;57.60
11426;DHT22;5769;47.998;7.788;2023-02-10T15:31:27;19.00;57.60
11426;DHT22;5769;47.998;7.788;2023-02-10T15:33:57;19.00;57.60
11426;DHT22;5769;47.998;7.788;2023-02-10T15:36:26;19.00;57.60
11426;DHT22;5769;47.998;7.788;2023-02-10T15:38:58;19.00;57.60
11426;DHT22;5769;47.998;7.788;2023-02-10T15:41:40;19.00;57.60
11426;DHT22;5769;47.998;7.788;2023-02-10T15:44:28;19.00;57.60
11426;DHT22;5769;47.998;7.788;2023-02-10T15:47:20;19.00;57.60
11426;DHT22;5769;47.998;7.788;2023-02-10T15:49:48;19.00;57.60
11426;DHT22;5769;47.998;7.788;2023-02-10T15:52:20;19.00;57.60
11426;DHT22;5769;47.998;7.788;2023-02-10T15:54:48;19.00;57.60
11426;DHT22;5769;47.998;7.788;2023-02-10T15:57:17;19.00;57.60
11426;DHT22;5769;47.998;7.788;2023-02-10T15:59:44;19.00;57.60
11426;DHT22;5769;47.998;7.788;2023-02-10T16:02:14;19.00;57.60
11426;DHT22;5769;47.998;7.788;2023-02-10T16:04:42;19.00;57.60
11426;DHT22;5769;47.998;7.788;2023-02-10T16:07:14;18.90;57.50
11426;DHT22;5769;47.998;7.788;2023-02-10T16:09:43;18.90;57.50
11426;DHT22;5769;47.998;7.788;2023-02-10T16:12:10;19.00;57.60